createdAt,value
2017-12-22T00:00:49.412Z,27.93
2017-12-22T00:01:51.918Z,23.80
2017-12-22T00:02:54.391Z,23.63
2017-12-22T00:03:56.888Z,21.23
2017-12-22T00:04:59.354Z,19.60
2017-12-22T00:06:01.819Z,22.53
2017-12-22T00:07:04.288Z,26.20
2017-12-22T00:08:06.750Z,15.67
2017-12-22T00:09:09.244Z,18.97
2017-12-22T00:10:11.716Z,21.47
2017-12-22T00:11:14.190Z,13.90
2017-12-22T00:12:16.650Z,22.77
2017-12-22T00:13:19.139Z,14.73
2017-12-22T00:14:21.624Z,24.63
2017-12-22T00:15:24.082Z,16.47
2017-12-22T00:16:26.539Z,17.13
2017-12-22T00:17:29.012Z,16.40
2017-12-22T00:18:31.480Z,16.60
2017-12-22T00:19:33.980Z,18.33
2017-12-22T00:20:36.443Z,29.53
2017-12-22T00:21:38.920Z,17.60
2017-12-22T00:22:41.392Z,27.27
2017-12-22T00:23:43.872Z,17.03
2017-12-22T00:24:46.354Z,15.20
2017-12-22T00:25:48.833Z,33.30
2017-12-22T00:26:51.306Z,18.70
2017-12-22T00:27:53.785Z,17.60
2017-12-22T00:28:56.268Z,11.80
2017-12-22T00:29:58.782Z,12.57
2017-12-22T00:31:01.250Z,12.50
2017-12-22T00:32:03.745Z,15.67
2017-12-22T00:33:06.222Z,23.20
2017-12-22T00:34:08.687Z,19.87
2017-12-22T00:35:11.186Z,14.37
2017-12-22T00:36:13.654Z,17.40
2017-12-22T00:37:16.122Z,17.00
2017-12-22T00:38:18.600Z,17.53
2017-12-22T00:39:21.072Z,17.00
2017-12-22T00:40:23.557Z,13.97
2017-12-22T00:41:26.017Z,15.33
2017-12-22T00:42:28.474Z,21.00
2017-12-22T00:43:30.949Z,18.17
2017-12-22T00:44:33.428Z,28.93
2017-12-22T00:45:35.913Z,20.97
2017-12-22T00:46:38.375Z,17.83
2017-12-22T00:47:40.849Z,12.23
2017-12-22T00:48:43.314Z,22.13
2017-12-22T00:49:45.874Z,10.53
2017-12-22T00:50:48.373Z,17.13
2017-12-22T00:51:50.839Z,13.30
2017-12-22T00:52:53.306Z,15.23
2017-12-22T00:53:55.777Z,15.10
2017-12-22T00:54:58.252Z,14.57
2017-12-22T00:56:00.738Z,13.00
2017-12-22T00:57:03.198Z,11.57
2017-12-22T00:58:05.662Z,14.10
2017-12-22T00:59:08.136Z,12.67
2017-12-22T01:00:10.595Z,20.93
2017-12-22T01:01:13.088Z,18.03
2017-12-22T01:02:15.567Z,14.53
2017-12-22T01:03:18.044Z,19.77
2017-12-22T01:04:20.521Z,18.03
2017-12-22T01:05:22.997Z,13.37
2017-12-22T01:06:25.496Z,12.50
2017-12-22T01:07:27.974Z,18.73
2017-12-22T01:08:30.435Z,15.70
2017-12-22T01:09:32.909Z,16.17
2017-12-22T01:10:35.438Z,16.13
2017-12-22T01:11:37.920Z,19.20
2017-12-22T01:12:40.396Z,21.63
2017-12-22T01:13:43.118Z,11.47
2017-12-22T01:14:45.605Z,13.73
2017-12-22T01:15:53.758Z,14.73
2017-12-22T01:17:01.949Z,15.17
2017-12-22T01:18:10.020Z,11.27
2017-12-22T01:19:19.914Z,12.53
2017-12-22T01:20:22.378Z,14.63
2017-12-22T01:21:24.848Z,11.43
2017-12-22T01:22:27.340Z,15.30
2017-12-22T01:23:29.818Z,10.70
2017-12-22T01:24:32.760Z,11.57
2017-12-22T01:25:35.218Z,11.70
2017-12-22T01:26:37.694Z,10.23
2017-12-22T01:27:40.189Z,13.37
2017-12-22T01:28:42.664Z,15.20
2017-12-22T01:29:45.128Z,19.20
2017-12-22T01:30:47.612Z,16.13
2017-12-22T01:31:50.069Z,12.10
2017-12-22T01:32:52.648Z,13.03
2017-12-22T01:33:55.129Z,12.17
2017-12-22T01:34:57.613Z,13.10
2017-12-22T01:36:00.073Z,10.60
2017-12-22T01:37:02.577Z,12.23
2017-12-22T01:38:05.059Z,15.67
2017-12-22T01:39:07.531Z,13.10
2017-12-22T01:40:10.005Z,11.43
2017-12-22T01:41:12.707Z,13.80
2017-12-22T01:42:15.164Z,9.93
2017-12-22T01:43:17.687Z,11.03
2017-12-22T01:44:20.133Z,12.03
2017-12-22T01:45:22.590Z,11.40
2017-12-22T01:46:25.067Z,11.70
2017-12-22T01:47:27.565Z,11.83
2017-12-22T01:48:30.039Z,11.17
2017-12-22T01:49:32.500Z,11.40
2017-12-22T01:50:34.972Z,10.70
2017-12-22T01:51:37.433Z,10.90
2017-12-22T01:52:39.909Z,11.27
2017-12-22T01:53:42.384Z,10.80
2017-12-22T01:54:44.860Z,12.23
2017-12-22T01:55:47.332Z,11.50
2017-12-22T01:56:49.828Z,12.67
2017-12-22T01:57:52.294Z,15.33
2017-12-22T01:58:54.755Z,14.07
2017-12-22T01:59:57.237Z,12.70
2017-12-22T02:00:59.826Z,9.83
2017-12-22T02:02:02.329Z,11.60
2017-12-22T02:03:04.804Z,10.37
2017-12-22T02:04:07.269Z,10.97
2017-12-22T02:05:09.749Z,18.83
2017-12-22T02:06:12.211Z,11.33
2017-12-22T02:07:14.704Z,13.07
2017-12-22T02:08:17.162Z,18.93
2017-12-22T02:09:19.625Z,12.20
2017-12-22T02:10:22.082Z,15.77
2017-12-22T02:11:24.688Z,14.00
2017-12-22T02:12:27.151Z,15.30
2017-12-22T02:13:29.614Z,11.90
2017-12-22T02:14:32.074Z,10.77
2017-12-22T02:15:34.643Z,11.63
2017-12-22T02:16:37.106Z,17.23
2017-12-22T02:17:39.565Z,11.07
2017-12-22T02:18:42.045Z,12.17
2017-12-22T02:19:44.507Z,10.63
2017-12-22T02:20:46.983Z,12.93
2017-12-22T02:21:49.589Z,12.20
2017-12-22T02:22:52.066Z,12.23
2017-12-22T02:23:55.011Z,13.80
2017-12-22T02:24:57.478Z,15.20
2017-12-22T02:25:59.942Z,13.80
2017-12-22T02:27:02.402Z,9.57
2017-12-22T02:28:04.885Z,8.27
2017-12-22T02:29:07.360Z,14.47
2017-12-22T02:30:09.842Z,15.67
2017-12-22T02:31:12.303Z,14.40
2017-12-22T02:32:14.767Z,14.10
2017-12-22T02:33:17.232Z,11.03
2017-12-22T02:34:19.691Z,17.53
2017-12-22T02:35:22.180Z,22.83
2017-12-22T02:36:24.657Z,17.93
2017-12-22T02:37:27.115Z,18.50
2017-12-22T02:38:29.570Z,8.03
2017-12-22T02:39:32.065Z,16.10
2017-12-22T02:40:34.531Z,15.23
2017-12-22T02:41:37.012Z,13.20
2017-12-22T02:42:39.489Z,11.67
2017-12-22T02:43:41.951Z,13.50
2017-12-22T02:44:44.431Z,12.67
2017-12-22T02:45:46.912Z,12.43
2017-12-22T02:46:49.389Z,11.27
2017-12-22T02:47:51.865Z,15.37
2017-12-22T02:48:54.327Z,9.63
2017-12-22T02:49:56.830Z,9.13
2017-12-22T02:50:59.294Z,10.23
2017-12-22T02:52:01.785Z,10.83
2017-12-22T02:53:04.246Z,12.53
2017-12-22T02:54:06.699Z,8.10
2017-12-22T02:55:09.204Z,14.53
2017-12-22T02:56:11.677Z,8.63
2017-12-22T02:57:14.152Z,12.63
2017-12-22T02:58:16.624Z,16.17
2017-12-22T02:59:19.082Z,16.00
2017-12-22T03:00:21.562Z,8.17
2017-12-22T03:01:24.017Z,17.97
2017-12-22T03:02:26.475Z,8.13
2017-12-22T03:03:28.952Z,11.03
2017-12-22T03:04:31.432Z,10.10
2017-12-22T03:05:33.918Z,12.60
2017-12-22T03:06:36.392Z,14.00
2017-12-22T03:07:38.864Z,8.67
2017-12-22T03:08:41.337Z,13.47
2017-12-22T03:09:43.806Z,14.50
2017-12-22T03:10:46.300Z,13.20
2017-12-22T03:11:48.772Z,11.03
2017-12-22T03:12:51.305Z,17.70
2017-12-22T03:13:53.726Z,12.67
2017-12-22T03:14:56.186Z,19.53
2017-12-22T03:15:58.686Z,10.27
2017-12-22T03:17:01.162Z,11.93
2017-12-22T03:18:03.626Z,11.83
2017-12-22T03:19:06.101Z,11.33
2017-12-22T03:20:08.558Z,8.93
2017-12-22T03:21:11.052Z,10.60
2017-12-22T03:22:13.529Z,10.70
2017-12-22T03:23:16.008Z,13.27
2017-12-22T03:24:18.467Z,10.80
2017-12-22T03:25:20.941Z,9.80
2017-12-22T03:26:23.440Z,11.30
2017-12-22T03:27:25.898Z,18.60
2017-12-22T03:28:28.376Z,10.00
2017-12-22T03:29:30.835Z,9.97
2017-12-22T03:30:33.313Z,12.53
2017-12-22T03:31:35.810Z,8.20
2017-12-22T03:32:38.305Z,7.60
2017-12-22T03:33:40.763Z,9.70
2017-12-22T03:34:43.227Z,9.83
2017-12-22T03:35:45.701Z,7.97
2017-12-22T03:36:48.197Z,13.00
2017-12-22T03:37:50.673Z,11.43
2017-12-22T03:38:53.148Z,7.90
2017-12-22T03:39:55.624Z,9.73
2017-12-22T03:40:58.105Z,12.57
2017-12-22T03:42:00.595Z,9.47
2017-12-22T03:43:03.076Z,7.37
2017-12-22T03:44:05.539Z,12.63
2017-12-22T03:45:08.015Z,10.80
2017-12-22T03:46:10.493Z,10.43
2017-12-22T03:47:12.966Z,9.30
2017-12-22T03:48:15.426Z,13.43
2017-12-22T03:49:17.901Z,11.60
2017-12-22T03:50:20.359Z,7.77
2017-12-22T03:51:22.815Z,7.90
2017-12-22T03:52:25.309Z,8.90
2017-12-22T03:53:27.791Z,11.63
2017-12-22T03:54:30.254Z,7.80
2017-12-22T03:55:32.715Z,11.67
2017-12-22T03:56:35.170Z,9.77
2017-12-22T03:57:38.107Z,9.00
2017-12-22T03:58:40.584Z,10.30
2017-12-22T03:59:43.052Z,7.73
2017-12-22T04:00:45.510Z,11.53
2017-12-22T04:01:47.996Z,6.23
2017-12-22T04:02:50.490Z,6.90
2017-12-22T04:03:53.005Z,12.17
2017-12-22T04:04:55.467Z,9.07
2017-12-22T04:05:57.936Z,9.13
2017-12-22T04:07:00.392Z,6.97
2017-12-22T04:08:02.857Z,7.67
2017-12-22T04:09:05.310Z,9.73
2017-12-22T04:10:07.774Z,10.97
2017-12-22T04:11:10.258Z,10.73
2017-12-22T04:12:12.728Z,7.97
2017-12-22T04:13:15.205Z,8.03
2017-12-22T04:14:17.671Z,12.43
2017-12-22T04:15:20.148Z,8.97
2017-12-22T04:16:22.636Z,10.03
2017-12-22T04:17:25.126Z,8.20
2017-12-22T04:18:27.605Z,7.77
2017-12-22T04:19:30.083Z,9.83
2017-12-22T04:20:32.560Z,9.13
2017-12-22T04:21:35.033Z,6.73
2017-12-22T04:22:37.498Z,9.10
2017-12-22T04:23:39.969Z,8.87
2017-12-22T04:24:42.442Z,9.10
2017-12-22T04:25:44.921Z,10.93
2017-12-22T04:26:47.485Z,9.30
2017-12-22T04:27:49.961Z,8.77
2017-12-22T04:28:52.433Z,8.40
2017-12-22T04:29:54.905Z,7.97
2017-12-22T04:30:57.377Z,6.60
2017-12-22T04:31:59.853Z,10.20
2017-12-22T04:33:02.331Z,7.57
2017-12-22T04:34:04.808Z,11.57
2017-12-22T04:35:07.277Z,7.70
2017-12-22T04:36:09.743Z,7.60
2017-12-22T04:37:12.219Z,9.70
2017-12-22T04:38:14.674Z,9.53
2017-12-22T04:39:17.148Z,7.40
2017-12-22T04:40:19.621Z,9.60
2017-12-22T04:41:22.093Z,8.37
2017-12-22T04:42:24.551Z,5.13
2017-12-22T04:43:27.029Z,7.40
2017-12-22T04:44:29.501Z,7.93
2017-12-22T04:45:31.954Z,6.73
2017-12-22T04:46:34.410Z,8.50
2017-12-22T04:47:36.874Z,11.43
2017-12-22T04:48:39.357Z,13.70
2017-12-22T04:49:41.818Z,10.40
2017-12-22T04:50:44.272Z,8.40
2017-12-22T04:51:46.735Z,12.03
2017-12-22T04:52:49.209Z,9.93
2017-12-22T04:53:51.693Z,9.60
2017-12-22T04:54:54.167Z,9.40
2017-12-22T04:55:56.635Z,6.47
2017-12-22T04:56:59.098Z,9.10
2017-12-22T04:58:01.580Z,9.43
2017-12-22T04:59:04.046Z,7.77
2017-12-22T05:00:06.527Z,6.67
2017-12-22T05:01:09.016Z,12.50
2017-12-22T05:02:11.485Z,9.20
2017-12-22T05:03:13.943Z,7.00
2017-12-22T05:04:16.416Z,10.60
2017-12-22T05:05:18.874Z,10.67
2017-12-22T05:06:21.340Z,9.50
2017-12-22T05:07:23.804Z,7.77
2017-12-22T05:08:26.258Z,9.20
2017-12-22T05:09:28.728Z,5.07
2017-12-22T05:10:31.186Z,8.30
2017-12-22T05:11:33.660Z,8.47
2017-12-22T05:12:36.123Z,8.17
2017-12-22T05:13:38.596Z,9.70
2017-12-22T05:14:41.076Z,11.90
2017-12-22T05:15:43.530Z,7.33
2017-12-22T05:16:46.005Z,6.67
2017-12-22T05:17:48.466Z,16.93
2017-12-22T05:18:50.934Z,7.97
2017-12-22T05:19:53.408Z,7.90
2017-12-22T05:20:55.888Z,11.23
2017-12-22T05:21:58.361Z,11.70
2017-12-22T05:23:00.828Z,9.23
2017-12-22T05:24:03.286Z,11.40
2017-12-22T05:25:05.789Z,14.13
2017-12-22T05:26:08.247Z,7.43
2017-12-22T05:27:10.715Z,13.00
2017-12-22T05:28:13.177Z,7.93
2017-12-22T05:29:15.653Z,10.80
2017-12-22T05:30:18.115Z,6.47
2017-12-22T05:31:20.590Z,12.90
2017-12-22T05:32:23.069Z,8.43
2017-12-22T05:33:25.526Z,8.00
2017-12-22T05:34:28.029Z,12.40
2017-12-22T05:35:30.509Z,9.40
2017-12-22T05:36:32.967Z,9.93
2017-12-22T05:37:35.430Z,5.20
2017-12-22T05:38:37.891Z,7.60
2017-12-22T05:39:40.346Z,8.93
2017-12-22T05:40:42.821Z,8.87
2017-12-22T05:41:45.279Z,11.97
2017-12-22T05:42:47.739Z,5.83
2017-12-22T05:43:50.211Z,6.90
2017-12-22T05:44:52.666Z,7.03
2017-12-22T05:45:55.136Z,8.43
2017-12-22T05:46:57.614Z,7.87
2017-12-22T05:48:00.074Z,21.43
2017-12-22T05:49:02.572Z,9.33
2017-12-22T05:50:05.048Z,10.93
2017-12-22T05:51:07.514Z,6.20
2017-12-22T05:52:09.975Z,7.73
2017-12-22T05:53:12.430Z,7.20
2017-12-22T05:54:14.908Z,21.10
2017-12-22T05:55:17.386Z,6.37
2017-12-22T05:56:19.884Z,13.67
2017-12-22T05:57:22.339Z,7.10
2017-12-22T05:58:24.797Z,11.10
2017-12-22T05:59:27.273Z,5.60
2017-12-22T06:00:29.908Z,9.90
2017-12-22T06:01:32.389Z,10.00
2017-12-22T06:02:34.869Z,8.60
2017-12-22T06:03:37.339Z,9.00
2017-12-22T06:04:39.794Z,6.70
2017-12-22T06:05:42.272Z,6.77
2017-12-22T06:06:44.726Z,4.40
2017-12-22T06:07:47.195Z,7.20
2017-12-22T06:08:49.654Z,11.23
2017-12-22T06:09:52.110Z,6.80
2017-12-22T06:10:54.585Z,7.80
2017-12-22T06:11:57.064Z,10.77
2017-12-22T06:12:59.631Z,5.33
2017-12-22T06:14:02.105Z,8.77
2017-12-22T06:15:04.580Z,6.10
2017-12-22T06:16:07.057Z,4.90
2017-12-22T06:17:09.515Z,4.90
2017-12-22T06:18:11.975Z,10.00
2017-12-22T06:19:14.452Z,4.43
2017-12-22T06:20:16.925Z,5.17
2017-12-22T06:21:19.383Z,5.10
2017-12-22T06:22:21.860Z,9.63
2017-12-22T06:23:24.319Z,11.73
2017-12-22T06:24:26.787Z,10.70
2017-12-22T06:25:29.264Z,15.30
2017-12-22T06:26:31.744Z,11.23
2017-12-22T06:27:34.215Z,17.23
2017-12-22T06:28:36.714Z,17.43
2017-12-22T06:29:39.178Z,12.93
2017-12-22T06:30:41.634Z,9.93
2017-12-22T06:31:44.114Z,18.50
2017-12-22T06:32:46.582Z,17.37
2017-12-22T06:33:49.042Z,11.03
2017-12-22T06:34:51.503Z,10.27
2017-12-22T06:35:53.981Z,10.83
2017-12-22T06:36:56.574Z,15.43
2017-12-22T06:37:59.067Z,19.03
2017-12-22T06:39:01.548Z,15.03
2017-12-22T06:40:04.028Z,15.67
2017-12-22T06:41:06.737Z,13.43
2017-12-22T06:42:09.338Z,14.00
2017-12-22T06:43:11.845Z,8.97
2017-12-22T06:44:14.321Z,13.53
2017-12-22T06:45:16.800Z,10.40
2017-12-22T06:46:19.266Z,14.33
2017-12-22T06:47:21.744Z,18.37
2017-12-22T06:48:24.220Z,14.67
2017-12-22T06:49:26.692Z,23.77
2017-12-22T06:50:29.371Z,18.70
2017-12-22T06:51:31.885Z,23.77
2017-12-22T06:52:34.418Z,13.03
2017-12-22T06:53:36.890Z,10.20
2017-12-22T06:54:39.346Z,16.10
2017-12-22T06:55:41.854Z,13.60
2017-12-22T06:56:44.304Z,12.40
2017-12-22T06:57:46.781Z,11.13
2017-12-22T06:58:49.260Z,11.10
2017-12-22T06:59:51.726Z,15.20
2017-12-22T07:00:54.187Z,13.83
2017-12-22T07:01:56.647Z,11.40
2017-12-22T07:02:59.124Z,10.40
2017-12-22T07:04:01.601Z,10.10
2017-12-22T07:05:04.058Z,8.70
2017-12-22T07:06:06.514Z,10.97
2017-12-22T07:07:08.971Z,7.60
2017-12-22T07:08:11.427Z,6.57
2017-12-22T07:09:13.896Z,7.00
2017-12-22T07:10:16.351Z,7.27
2017-12-22T07:11:18.874Z,5.50
2017-12-22T07:12:21.306Z,12.97
2017-12-22T07:13:23.771Z,11.40
2017-12-22T07:14:26.226Z,6.30
2017-12-22T07:15:28.710Z,7.50
2017-12-22T07:16:31.179Z,5.57
2017-12-22T07:17:33.659Z,6.87
2017-12-22T07:18:36.174Z,8.00
2017-12-22T07:19:38.648Z,4.03
2017-12-22T07:20:41.102Z,5.00
2017-12-22T07:21:43.578Z,5.40
2017-12-22T07:22:46.034Z,6.13
2017-12-22T07:23:48.494Z,5.03
2017-12-22T07:24:50.965Z,5.37
2017-12-22T07:25:53.422Z,5.00
2017-12-22T07:26:55.878Z,3.47
2017-12-22T07:27:58.357Z,4.90
2017-12-22T07:29:00.818Z,6.77
2017-12-22T07:30:03.282Z,4.23
2017-12-22T07:31:05.757Z,4.20
2017-12-22T07:32:08.228Z,5.60
2017-12-22T07:33:10.686Z,4.63
2017-12-22T07:34:13.167Z,10.77
2017-12-22T07:35:15.651Z,5.23
2017-12-22T07:36:18.120Z,4.00
2017-12-22T07:37:20.597Z,2.73
2017-12-22T07:38:23.064Z,9.70
2017-12-22T07:39:25.522Z,4.03
2017-12-22T07:40:28.931Z,4.03
2017-12-22T07:41:31.403Z,5.60
2017-12-22T07:42:33.862Z,6.83
2017-12-22T07:43:36.337Z,5.83
2017-12-22T07:44:38.799Z,8.17
2017-12-22T07:45:41.272Z,7.33
2017-12-22T07:46:43.749Z,3.23
2017-12-22T07:47:46.206Z,6.80
2017-12-22T07:48:49.741Z,8.23
2017-12-22T07:49:52.216Z,13.13
2017-12-22T07:50:54.676Z,8.97
2017-12-22T07:51:57.154Z,9.80
2017-12-22T07:52:59.616Z,6.10
2017-12-22T07:54:02.075Z,7.23
2017-12-22T07:55:04.535Z,3.90
2017-12-22T07:56:07.005Z,4.70
2017-12-22T07:57:09.464Z,8.30
2017-12-22T07:58:11.938Z,7.20
2017-12-22T07:59:14.417Z,6.17
2017-12-22T08:00:16.884Z,7.70
2017-12-22T08:01:19.343Z,11.97
2017-12-22T08:02:21.816Z,8.20
2017-12-22T08:03:24.272Z,6.80
2017-12-22T08:04:26.761Z,4.30
2017-12-22T08:05:29.217Z,3.20
2017-12-22T08:06:31.690Z,5.03
2017-12-22T08:07:34.150Z,2.63
2017-12-22T08:08:36.618Z,9.23
2017-12-22T08:09:39.097Z,5.43
2017-12-22T08:10:41.554Z,6.07
2017-12-22T08:11:44.014Z,6.10
2017-12-22T08:12:46.494Z,4.27
2017-12-22T08:13:48.958Z,4.53
2017-12-22T08:14:51.433Z,6.90
2017-12-22T08:15:53.939Z,4.00
2017-12-22T08:16:56.417Z,6.90
2017-12-22T08:17:58.870Z,5.60
2017-12-22T08:19:01.333Z,11.20
2017-12-22T08:20:03.805Z,6.30
2017-12-22T08:21:06.270Z,4.77
2017-12-22T08:22:08.730Z,8.53
2017-12-22T08:23:11.200Z,6.83
2017-12-22T08:24:13.662Z,9.23
2017-12-22T08:25:16.140Z,9.03
2017-12-22T08:26:18.612Z,6.70
2017-12-22T08:27:21.079Z,8.77
2017-12-22T08:28:23.573Z,6.10
2017-12-22T08:29:26.035Z,5.60
2017-12-22T08:30:28.534Z,7.60
2017-12-22T08:31:31.005Z,3.93
2017-12-22T08:32:33.465Z,3.97
2017-12-22T08:33:35.924Z,12.90
2017-12-22T08:34:38.389Z,12.40
2017-12-22T08:35:40.855Z,13.80
2017-12-22T08:36:43.319Z,11.67
2017-12-22T08:37:45.801Z,14.00
2017-12-22T08:38:48.276Z,18.60
2017-12-22T08:39:50.746Z,15.10
2017-12-22T08:40:53.220Z,12.03
2017-12-22T08:41:55.715Z,12.60
2017-12-22T08:42:58.192Z,13.30
2017-12-22T08:44:00.668Z,14.40
2017-12-22T08:45:03.145Z,16.27
2017-12-22T08:46:05.622Z,14.40
2017-12-22T08:47:08.093Z,12.60
2017-12-22T08:48:10.613Z,26.97
2017-12-22T08:49:13.086Z,31.03
2017-12-22T08:50:15.550Z,15.60
2017-12-22T08:51:18.011Z,18.30
2017-12-22T08:52:20.479Z,12.70
2017-12-22T08:53:22.948Z,8.23
2017-12-22T08:54:25.411Z,36.67
2017-12-22T08:55:27.870Z,10.97
2017-12-22T08:56:30.348Z,5.67
2017-12-22T08:57:32.829Z,22.90
2017-12-22T08:58:35.290Z,20.97
2017-12-22T08:59:37.764Z,22.97
2017-12-22T09:00:40.226Z,12.30
2017-12-22T09:01:42.687Z,23.77
2017-12-22T09:02:45.160Z,11.77
2017-12-22T09:03:47.634Z,13.47
2017-12-22T09:04:50.162Z,18.07
2017-12-22T09:05:52.663Z,17.20
2017-12-22T09:06:55.149Z,10.13
2017-12-22T09:07:57.687Z,14.50
2017-12-22T09:09:00.188Z,14.87
2017-12-22T09:10:02.665Z,15.03
2017-12-22T09:11:05.145Z,14.10
2017-12-22T09:12:07.611Z,16.07
2017-12-22T09:13:10.120Z,13.30
2017-12-22T09:14:12.596Z,9.53
2017-12-22T09:15:15.124Z,9.97
2017-12-22T09:16:17.655Z,11.50
2017-12-22T09:17:20.115Z,13.00
2017-12-22T09:18:22.626Z,14.53
2017-12-22T09:19:25.091Z,12.90
2017-12-22T09:20:27.575Z,15.73
2017-12-22T09:21:30.088Z,17.63
2017-12-22T09:22:32.536Z,12.47
2017-12-22T09:23:35.001Z,14.87
2017-12-22T09:24:37.554Z,13.87
2017-12-22T09:25:40.038Z,13.77
2017-12-22T09:26:43.697Z,14.10
2017-12-22T09:27:46.244Z,11.30
2017-12-22T09:28:48.735Z,14.47
2017-12-22T09:29:51.227Z,7.27
2017-12-22T09:30:53.721Z,9.03
2017-12-22T09:31:56.196Z,13.03
2017-12-22T09:32:58.658Z,9.97
2017-12-22T09:34:01.139Z,10.30
2017-12-22T09:35:03.673Z,12.33
2017-12-22T09:36:06.160Z,16.00
2017-12-22T09:37:08.636Z,11.57
2017-12-22T09:38:11.125Z,13.10
2017-12-22T09:39:13.606Z,7.63
2017-12-22T09:40:16.089Z,10.20
2017-12-22T09:41:18.608Z,8.27
2017-12-22T09:42:21.088Z,8.60
2017-12-22T09:43:23.567Z,10.43
2017-12-22T09:44:26.042Z,13.67
2017-12-22T09:45:28.532Z,10.77
2017-12-22T09:46:31.101Z,13.73
2017-12-22T09:47:33.568Z,8.50
2017-12-22T09:48:36.027Z,10.40
2017-12-22T09:49:38.500Z,8.30
2017-12-22T09:50:40.973Z,15.23
2017-12-22T09:51:43.461Z,9.10
2017-12-22T09:52:45.969Z,7.57
2017-12-22T09:53:48.446Z,12.13
2017-12-22T09:54:50.928Z,13.43
2017-12-22T09:55:53.420Z,11.53
2017-12-22T09:56:55.894Z,11.93
2017-12-22T09:57:58.366Z,7.40
2017-12-22T09:59:00.912Z,10.93
2017-12-22T10:00:03.375Z,13.50
2017-12-22T10:01:05.912Z,12.03
2017-12-22T10:02:08.399Z,7.73
2017-12-22T10:03:10.906Z,14.00
2017-12-22T10:04:13.372Z,8.10
2017-12-22T10:05:15.868Z,10.13
2017-12-22T10:06:18.347Z,11.80
2017-12-22T10:07:20.837Z,6.57
2017-12-22T10:08:23.317Z,7.13
2017-12-22T10:09:25.813Z,12.20
2017-12-22T10:10:28.299Z,16.63
2017-12-22T10:11:30.780Z,7.20
2017-12-22T10:12:33.258Z,9.20
2017-12-22T10:13:35.752Z,7.97
2017-12-22T10:14:38.237Z,11.90
2017-12-22T10:15:40.695Z,7.47
2017-12-22T10:16:43.184Z,9.43
2017-12-22T10:17:45.729Z,9.43
2017-12-22T10:18:48.206Z,6.80
2017-12-22T10:19:50.749Z,8.00
2017-12-22T10:20:53.269Z,8.10
2017-12-22T10:21:55.757Z,9.30
2017-12-22T10:22:58.220Z,8.63
2017-12-22T10:24:00.705Z,8.27
2017-12-22T10:25:03.210Z,7.87
2017-12-22T10:26:05.705Z,7.03
2017-12-22T10:27:08.166Z,10.23
2017-12-22T10:28:10.630Z,9.40
2017-12-22T10:29:13.094Z,8.33
2017-12-22T10:30:15.557Z,6.27
2017-12-22T10:31:18.034Z,6.57
2017-12-22T10:32:20.521Z,6.37
2017-12-22T10:33:22.996Z,6.77
2017-12-22T10:34:25.459Z,7.90
2017-12-22T10:35:27.918Z,11.23
2017-12-22T10:36:30.397Z,9.97
2017-12-22T10:37:32.884Z,7.83
2017-12-22T10:38:35.364Z,14.47
2017-12-22T10:39:37.845Z,7.23
2017-12-22T10:40:40.317Z,8.37
2017-12-22T10:41:42.770Z,8.60
2017-12-22T10:42:45.269Z,8.83
2017-12-22T10:43:47.726Z,7.40
2017-12-22T10:44:50.204Z,10.50
2017-12-22T10:45:52.684Z,6.00
2017-12-22T10:46:55.190Z,8.70
2017-12-22T10:47:57.683Z,7.40
2017-12-22T10:49:00.157Z,9.37
2017-12-22T10:50:02.637Z,5.97
2017-12-22T10:51:05.098Z,8.03
2017-12-22T10:52:07.571Z,7.37
2017-12-22T10:53:10.069Z,6.77
2017-12-22T10:54:12.531Z,9.57
2017-12-22T10:55:14.986Z,6.70
2017-12-22T10:56:17.475Z,8.07
2017-12-22T10:57:19.936Z,6.80
2017-12-22T10:58:22.442Z,8.83
2017-12-22T10:59:24.923Z,6.80
2017-12-22T11:00:28.317Z,7.33
2017-12-22T11:01:30.786Z,7.60
2017-12-22T11:02:33.280Z,7.27
2017-12-22T11:03:35.802Z,7.63
2017-12-22T11:04:38.279Z,9.07
2017-12-22T11:05:40.734Z,9.17
2017-12-22T11:06:43.195Z,7.77
2017-12-22T11:07:45.669Z,8.23
2017-12-22T11:08:48.248Z,8.83
2017-12-22T11:09:50.721Z,6.40
2017-12-22T11:10:53.179Z,8.33
2017-12-22T11:11:55.756Z,6.77
2017-12-22T11:12:58.240Z,7.43
2017-12-22T11:14:00.722Z,6.87
2017-12-22T11:15:03.198Z,8.63
2017-12-22T11:16:05.669Z,6.17
2017-12-22T11:17:08.134Z,7.23
2017-12-22T11:18:10.608Z,6.63
2017-12-22T11:19:14.027Z,6.10
2017-12-22T11:20:16.508Z,6.37
2017-12-22T11:21:18.968Z,6.63
2017-12-22T11:22:21.430Z,9.07
2017-12-22T11:23:23.906Z,6.40
2017-12-22T11:24:26.477Z,6.00
2017-12-22T11:25:28.947Z,6.60
2017-12-22T11:26:31.420Z,6.87
2017-12-22T11:27:33.878Z,9.33
2017-12-22T11:28:36.349Z,6.60
2017-12-22T11:29:38.849Z,8.23
2017-12-22T11:30:41.320Z,7.07
2017-12-22T11:31:43.806Z,6.10
2017-12-22T11:32:46.263Z,5.40
2017-12-22T11:33:49.576Z,6.30
2017-12-22T11:34:52.069Z,9.00
2017-12-22T11:35:54.533Z,7.50
2017-12-22T11:36:57.007Z,5.53
2017-12-22T11:37:59.475Z,10.03
2017-12-22T11:39:01.961Z,5.67
2017-12-22T11:40:04.460Z,6.90
2017-12-22T11:41:06.942Z,6.07
2017-12-22T11:42:09.403Z,5.40
2017-12-22T11:43:11.892Z,7.00
2017-12-22T11:44:14.381Z,5.20
2017-12-22T11:45:16.876Z,6.60
2017-12-22T11:46:19.355Z,6.80
2017-12-22T11:47:21.836Z,6.97
2017-12-22T11:48:24.294Z,5.80
2017-12-22T11:49:26.750Z,7.47
2017-12-22T11:50:29.233Z,6.63
2017-12-22T11:51:31.686Z,6.30
2017-12-22T11:52:34.142Z,7.50
2017-12-22T11:53:36.617Z,8.40
2017-12-22T11:54:39.237Z,5.73
2017-12-22T11:55:41.733Z,7.03
2017-12-22T11:56:44.225Z,7.60
2017-12-22T11:57:46.683Z,5.93
2017-12-22T11:58:49.157Z,5.87
2017-12-22T11:59:51.614Z,4.70
2017-12-22T12:00:54.098Z,5.37
2017-12-22T12:01:56.554Z,4.80
2017-12-22T12:02:59.011Z,5.50
2017-12-22T12:04:01.542Z,7.37
2017-12-22T12:05:04.060Z,5.70
2017-12-22T12:06:06.539Z,8.57
2017-12-22T12:07:09.016Z,6.17
2017-12-22T12:08:11.478Z,7.47
2017-12-22T12:09:13.991Z,6.27
2017-12-22T12:10:16.431Z,5.33
2017-12-22T12:11:18.909Z,5.43
2017-12-22T12:12:21.384Z,6.00
2017-12-22T12:13:23.873Z,5.07
2017-12-22T12:14:26.331Z,6.50
2017-12-22T12:15:28.804Z,6.00
2017-12-22T12:16:31.278Z,5.80
2017-12-22T12:17:33.748Z,6.30
2017-12-22T12:18:36.221Z,6.27
2017-12-22T12:19:38.689Z,5.93
2017-12-22T12:20:41.142Z,6.77
2017-12-22T12:21:43.842Z,5.70
2017-12-22T12:22:46.298Z,5.63
2017-12-22T12:23:48.784Z,4.47
2017-12-22T12:24:51.260Z,7.27
2017-12-22T12:25:53.732Z,5.17
2017-12-22T12:26:56.186Z,6.23
2017-12-22T12:27:58.665Z,6.87
2017-12-22T12:29:01.123Z,5.67
2017-12-22T12:30:03.605Z,6.47
2017-12-22T12:31:06.067Z,5.63
2017-12-22T12:32:08.526Z,5.97
2017-12-22T12:33:11.044Z,6.30
2017-12-22T12:34:13.485Z,5.50
2017-12-22T12:35:15.956Z,8.90
2017-12-22T12:36:18.574Z,5.07
2017-12-22T12:37:21.035Z,5.93
2017-12-22T12:38:23.491Z,4.63
2017-12-22T12:39:25.952Z,5.17
2017-12-22T12:40:28.448Z,4.83
2017-12-22T12:41:30.949Z,4.43
2017-12-22T12:42:33.444Z,5.40
2017-12-22T12:43:35.903Z,5.53
2017-12-22T12:44:38.380Z,8.27
2017-12-22T12:45:40.851Z,5.27
2017-12-22T12:46:43.328Z,4.80
2017-12-22T12:47:45.824Z,5.43
2017-12-22T12:48:48.312Z,5.77
2017-12-22T12:49:50.788Z,3.97
2017-12-22T12:50:53.254Z,4.10
2017-12-22T12:51:55.711Z,5.30
2017-12-22T12:52:58.167Z,4.23
2017-12-22T12:54:00.640Z,5.13
2017-12-22T12:55:03.098Z,5.20
2017-12-22T12:56:05.573Z,4.47
2017-12-22T12:57:08.056Z,7.30
2017-12-22T12:58:10.515Z,5.07
2017-12-22T12:59:13.054Z,6.80
2017-12-22T13:00:15.539Z,4.43
2017-12-22T13:01:18.008Z,6.40
2017-12-22T13:02:20.463Z,4.00
2017-12-22T13:03:22.923Z,5.50
2017-12-22T13:04:25.392Z,4.00
2017-12-22T13:05:27.860Z,4.50
2017-12-22T13:06:30.333Z,6.23
2017-12-22T13:07:32.821Z,6.13
2017-12-22T13:08:35.296Z,3.90
2017-12-22T13:09:37.754Z,4.23
2017-12-22T13:10:40.244Z,5.23
2017-12-22T13:11:42.749Z,4.43
2017-12-22T13:12:45.231Z,8.90
2017-12-22T13:13:47.716Z,5.40
2017-12-22T13:14:50.202Z,4.67
2017-12-22T13:15:52.686Z,4.07
2017-12-22T13:16:55.192Z,5.30
2017-12-22T13:17:57.655Z,4.40
2017-12-22T13:19:00.218Z,3.83
2017-12-22T13:20:02.696Z,5.10
2017-12-22T13:21:05.211Z,4.70
2017-12-22T13:22:07.681Z,5.60
2017-12-22T13:23:10.140Z,4.80
2017-12-22T13:24:12.602Z,5.07
2017-12-22T13:25:15.082Z,5.80
2017-12-22T13:26:17.585Z,5.53
2017-12-22T13:27:20.047Z,4.20
2017-12-22T13:28:22.523Z,4.17
2017-12-22T13:29:24.988Z,4.40
2017-12-22T13:30:27.482Z,4.73
2017-12-22T13:31:29.953Z,4.20
2017-12-22T13:32:32.424Z,3.93
2017-12-22T13:33:34.896Z,5.10
2017-12-22T13:34:37.388Z,5.60
2017-12-22T13:35:39.850Z,4.30
2017-12-22T13:36:42.310Z,4.97
2017-12-22T13:37:44.785Z,5.50
2017-12-22T13:38:47.246Z,4.00
2017-12-22T13:39:49.707Z,4.33